Charlevoix, MI

6:44 PM EDT on August 18, 2017 (GMT -0400)
1.5 W Ironton | | Change Station
Active Advisory: Beach Hazard Statement

Elev 750 ft 45.26 °N, 85.22 °W | Updated 11 seconds ago

Overcast
Overcast
62.2 °F
Feels Like 62.2 °F
N
6.0
Wind Variable Wind from West
Gusts 11.0 mph

Today
High -- | Low -- °F
--% Chance of Precip.
Yesterday
High -- | Low -- °F
Precip. -- in
Pressure 29.81 in
Visibility 7.0 miles
Clouds Mostly Cloudy 1300 ft
Overcast 2500 ft
Dew Point 58 °F
Humidity 87%
Rainfall 0.46 in
Snow Depth Not available.
6:46 AM 8:42 PM
Waning Crescent, 11% visible
METAR KCVX 182234Z AUTO 30010G14KT 7SM BKN013 OVC025 17/16 A2981 RMK AO2 T01730159
Pressure 29.81 in
Visibility 7.0 miles
Clouds Mostly Cloudy 1300 ft
Overcast 2500 ft
Dew Point 58 °F
Humidity 87%
Rainfall 0.46 in
Snow Depth Not available.
6:46 AM 8:42 PM
Waning Crescent, 11% visible
METAR KCVX 182234Z AUTO 30010G14KT 7SM BKN013 OVC025 17/16 A2981 RMK AO2 T01730159

Get Your Daily Forecast Email!

Thanks for signing up!

Be on the lookout for a verification email in your inbox.

You'll start receiving severe weather alerts in your inbox..

×

10-Day Weather Forecast

Almanac

Astronomy

Aug. 18, 2017 Rise Set
Actual Time
Civil Twilight
Nautical Twilight
Astronomical Twilight
Moon
Length of Visible Light
Length of Day
Tomorrow will be .
, % of the Moon is Illuminated

Today's Extremes

State Highs State Lows

Community

WunderPhotos

Category 6

Welcome to Category 6. This is the collective home for Weather Underground's featured writeups by Dr. Jeff Masters (right), Bob Henson (left), Chris Burt, and other regular contributors.

Nearby

Air Quality

  Air Quality AQ Index Pollutant
Not available.

Snow Depth

Station Depth Elevation

Earthquake Activity

City Distance Mag. Time & Date
Minimum magnitude displayed is 2.5.

Coastal Water Temperatures

Place Temperature

Stations

Nearby Weather Stations

Station Location Temp. Windchill Dew Point Humidity Wind Precip. Elev Updated Type
                   

Watches & Warnings

Beach Hazard Statement
Issued: 4:18 PM EDT Aug. 18, 2017 – National Weather Service

... Beach hazards statement remains in effect until 11 PM EDT this
evening...

* hazards... strong currents and high waves.

* Timing... through this evening.

* Location... Lake Michigan beaches of northwest lower Michigan.

Precautionary/preparedness actions...

A high swim risk means life threatening waves and currents are
expected. Stay out of the water and stay away from dangerous
areas like piers and breakwalls.